Time;durP1;ratioP1;P1;durP2;ratioP2;P2;SDS_P1;SDS_P2;PMS_P1;PMS_P2;Temp;Humidity;BMP_temperature;BMP_pressure;BME280_temperature;BME280_humidity;BME280_pressure;Samples;Min_cycle;Max_cycle;Signal;HPM_P1;HPM_P2
2021/01/12 00:00:36;;;;;;;18.90;13.37;;;3.30;54.30;;;;;;5092457;28;20445;-74
2021/01/12 00:03:03;;;;;;;17.30;12.93;;;3.30;54.30;;;;;;5092856;28;20462;-74
2021/01/12 00:05:30;;;;;;;14.87;11.73;;;3.40;54.20;;;;;;5093844;28;20457;-74
2021/01/12 00:07:56;;;;;;;14.40;11.60;;;3.40;54.30;;;;;;5096855;28;20473;-74
2021/01/12 00:10:24;;;;;;;16.43;13.73;;;3.40;54.20;;;;;;5096593;28;20453;-74
2021/01/12 00:12:52;;;;;;;18.90;12.53;;;3.40;54.30;;;;;;5096838;28;20486;-74
2021/01/12 00:15:19;;;;;;;17.27;11.57;;;3.40;54.30;;;;;;5096700;28;20462;-74
2021/01/12 00:17:45;;;;;;;16.20;10.93;;;3.40;53.90;;;;;;5096468;28;20502;-74
2021/01/12 00:20:12;;;;;;;16.07;11.67;;;3.40;54.00;;;;;;5096022;28;20449;-74
2021/01/12 00:22:40;;;;;;;19.93;14.27;;;3.40;54.00;;;;;;5094466;28;20980;-75
2021/01/12 00:25:08;;;;;;;14.93;12.80;;;3.30;54.00;;;;;;5096389;28;20451;-76
2021/01/12 00:27:38;;;;;;;20.47;14.00;;;3.30;54.20;;;;;;5096206;28;20460;-75
2021/01/12 00:30:06;;;;;;;18.87;13.37;;;3.10;54.20;;;;;;5095900;28;20479;-74
2021/01/12 00:32:32;;;;;;;20.50;12.90;;;3.10;54.60;;;;;;5095775;28;20524;-74
2021/01/12 00:34:59;;;;;;;17.90;12.80;;;3.00;54.60;;;;;;5096160;28;20873;-75
2021/01/12 00:37:27;;;;;;;14.40;12.90;;;3.10;55.00;;;;;;5096355;28;20974;-75
2021/01/12 00:39:54;;;;;;;14.50;11.17;;;3.10;54.80;;;;;;5095979;28;20515;-74
2021/01/12 00:42:21;;;;;;;18.33;12.60;;;3.10;54.90;;;;;;5096461;28;20461;-75
2021/01/12 00:44:49;;;;;;;17.37;12.13;;;3.10;54.80;;;;;;5095819;28;20511;-74
2021/01/12 00:47:15;;;;;;;15.43;12.27;;;3.00;54.90;;;;;;5096349;28;20929;-75
2021/01/12 00:49:42;;;;;;;15.90;13.10;;;2.90;54.90;;;;;;5093186;28;20450;-75
2021/01/12 00:52:09;;;;;;;17.60;12.53;;;2.80;55.20;;;;;;5081758;28;20986;-75
2021/01/12 00:54:35;;;;;;;19.63;12.97;;;2.90;55.50;;;;;;5075780;28;20536;-75
2021/01/12 00:57:02;;;;;;;23.50;12.40;;;2.90;55.40;;;;;;5093943;28;20519;-75
2021/01/12 00:59:29;;;;;;;31.70;13.60;;;2.90;55.20;;;;;;5095852;28;20476;-75
2021/01/12 01:02:00;;;;;;;16.80;12.10;;;3.00;55.30;;;;;;5095594;28;20450;-75
2021/01/12 01:04:27;;;;;;;13.73;12.20;;;3.00;55.40;;;;;;5095556;28;20450;-73
2021/01/12 01:06:53;;;;;;;16.00;9.27;;;3.10;55.40;;;;;;5095429;28;20957;-75
2021/01/12 01:09:20;;;;;;;15.77;12.07;;;3.10;55.10;;;;;;5095544;28;20476;-74
2021/01/12 01:11:48;;;;;;;15.17;11.27;;;3.10;55.30;;;;;;5095311;28;20490;-74
2021/01/12 01:14:15;;;;;;;16.73;12.43;;;3.20;55.10;;;;;;5094486;28;21239;-74
2021/01/12 01:16:42;;;;;;;14.83;10.90;;;3.20;55.00;;;;;;5093795;28;20454;-74
2021/01/12 01:19:10;;;;;;;16.10;11.77;;;3.30;55.00;;;;;;5094787;28;20445;-75
2021/01/12 01:21:37;;;;;;;13.43;10.03;;;3.30;54.90;;;;;;5095579;28;20504;-74
2021/01/12 01:24:04;;;;;;;14.17;10.93;;;3.40;54.90;;;;;;5095259;28;20454;-74
2021/01/12 01:26:31;;;;;;;16.50;10.90;;;3.30;54.70;;;;;;5095335;28;20949;-75
2021/01/12 01:28:57;;;;;;;18.80;10.83;;;3.40;54.70;;;;;;5095048;28;20445;-75
2021/01/12 01:31:24;;;;;;;19.80;11.37;;;3.40;54.70;;;;;;5094706;28;20973;-73
2021/01/12 01:33:51;;;;;;;17.67;10.57;;;3.40;54.70;;;;;;5094966;28;20526;-74
2021/01/12 01:36:19;;;;;;;16.53;10.73;;;3.30;54.80;;;;;;5094765;28;20459;-74
2021/01/12 01:38:45;;;;;;;13.13;8.70;;;3.40;55.00;;;;;;5095364;28;20446;-74
2021/01/12 01:41:12;;;;;;;14.53;11.47;;;3.40;55.10;;;;;;5094500;28;20473;-74
2021/01/12 01:43:39;;;;;;;18.07;12.57;;;3.40;55.10;;;;;;5093838;28;20806;-74
2021/01/12 01:46:06;;;;;;;20.37;12.47;;;3.50;55.10;;;;;;5094734;28;20514;-74
2021/01/12 01:48:33;;;;;;;16.93;11.63;;;3.50;55.10;;;;;;5094767;28;20520;-74
2021/01/12 01:51:02;;;;;;;14.57;10.33;;;3.60;55.10;;;;;;5094687;28;20484;-75
2021/01/12 01:53:30;;;;;;;15.23;11.40;;;3.60;55.00;;;;;;5094761;28;20533;-76
2021/01/12 01:56:01;;;;;;;12.03;9.60;;;3.60;54.90;;;;;;5094617;28;20458;-76
2021/01/12 01:58:29;;;;;;;12.33;9.57;;;3.70;55.00;;;;;;5074468;28;20447;-74
2021/01/12 02:00:56;;;;;;;13.00;9.93;;;3.70;55.00;;;;;;5074562;28;20532;-74
2021/01/12 02:03:29;;;;;;;15.03;10.27;;;3.80;54.90;;;;;;5093700;28;20454;-74
2021/01/12 02:06:00;;;;;;;14.37;10.20;;;3.80;55.00;;;;;;5094062;28;20454;-74
2021/01/12 02:08:30;;;;;;;9.93;8.80;;;3.80;55.00;;;;;;5092599;28;20506;-75
2021/01/12 02:11:01;;;;;;;11.83;9.50;;;3.90;54.90;;;;;;5094084;28;20807;-75
2021/01/12 02:13:31;;;;;;;13.23;9.40;;;3.90;54.90;;;;;;5094452;28;20533;-74
2021/01/12 02:16:00;;;;;;;13.93;9.90;;;3.90;54.90;;;;;;5094169;28;20447;-75
2021/01/12 02:18:32;;;;;;;11.03;8.37;;;3.90;54.80;;;;;;5094140;28;20457;-75
2021/01/12 02:21:01;;;;;;;13.80;10.57;;;4.00;54.90;;;;;;5093656;28;20521;-75
2021/01/12 02:23:33;;;;;;;15.93;10.73;;;4.00;54.90;;;;;;5073918;28;20993;-75
2021/01/12 02:26:01;;;;;;;10.63;8.77;;;4.00;54.90;;;;;;5089162;28;20533;-76
2021/01/12 02:28:28;;;;;;;11.43;8.30;;;4.00;55.00;;;;;;5093974;28;20522;-77
2021/01/12 02:30:55;;;;;;;10.80;9.13;;;4.10;55.10;;;;;;5093946;28;20443;-75
2021/01/12 02:33:22;;;;;;;10.63;8.27;;;4.00;55.00;;;;;;5093975;28;20469;-75
2021/01/12 02:35:51;;;;;;;10.77;8.13;;;4.10;55.30;;;;;;5092094;28;20454;-75
2021/01/12 02:38:19;;;;;;;14.23;8.43;;;4.00;55.20;;;;;;5093934;28;20461;-75
2021/01/12 02:40:45;;;;;;;11.80;7.83;;;4.10;55.20;;;;;;5093588;28;20997;-75
2021/01/12 02:43:14;;;;;;;10.23;7.90;;;4.00;55.40;;;;;;5094093;28;20508;-75
2021/01/12 02:45:40;;;;;;;14.33;9.47;;;4.10;55.50;;;;;;5093440;28;20488;-75
2021/01/12 02:48:08;;;;;;;14.23;9.90;;;4.00;55.40;;;;;;5093377;28;20456;-75
2021/01/12 02:50:34;;;;;;;10.03;8.47;;;4.10;55.60;;;;;;5093734;28;20529;-75
2021/01/12 02:53:01;;;;;;;9.13;8.20;;;4.00;55.50;;;;;;5093416;28;20983;-76
2021/01/12 02:55:27;;;;;;;8.47;7.67;;;4.10;56.10;;;;;;5093194;28;20497;-76
2021/01/12 02:57:53;;;;;;;10.37;7.83;;;4.10;55.60;;;;;;5093645;28;20807;-75
2021/01/12 03:00:22;;;;;;;9.80;7.10;;;4.20;55.50;;;;;;5093383;28;20456;-75
2021/01/12 03:02:49;;;;;;;8.63;7.30;;;4.20;55.30;;;;;;5091801;28;20459;-77
2021/01/12 03:05:15;;;;;;;12.10;8.10;;;4.30;55.40;;;;;;5093106;28;20447;-77
2021/01/12 03:07:42;;;;;;;10.97;7.90;;;4.30;55.30;;;;;;5093327;28;20574;-76
2021/01/12 03:10:09;;;;;;;10.33;6.97;;;4.40;55.30;;;;;;5093076;28;20447;-76
2021/01/12 03:12:35;;;;;;;11.33;7.97;;;4.50;55.10;;;;;;5093503;28;20486;-76
2021/01/12 03:15:02;;;;;;;11.00;8.50;;;4.50;54.90;;;;;;5093012;28;20978;-76
2021/01/12 03:17:29;;;;;;;13.50;8.20;;;4.50;54.70;;;;;;5093236;28;20452;-76
2021/01/12 03:19:56;;;;;;;9.60;7.53;;;4.60;54.80;;;;;;5092912;28;20475;-76
2021/01/12 03:22:22;;;;;;;8.87;7.13;;;4.60;54.70;;;;;;5093206;28;20461;-77
2021/01/12 03:24:49;;;;;;;10.43;7.33;;;4.60;54.70;;;;;;5092888;28;20451;-75
2021/01/12 03:27:15;;;;;;;8.20;7.07;;;4.70;54.70;;;;;;5092996;28;20443;-75
2021/01/12 03:29:42;;;;;;;9.20;6.83;;;4.70;54.50;;;;;;5090854;28;20967;-75
2021/01/12 03:32:09;;;;;;;10.37;7.33;;;4.70;54.40;;;;;;5092906;28;20487;-75
2021/01/12 03:34:36;;;;;;;9.30;7.73;;;4.70;54.40;;;;;;5092490;28;20540;-75
2021/01/12 03:37:03;;;;;;;8.90;6.53;;;4.70;54.60;;;;;;5093195;28;20448;-75
2021/01/12 03:39:29;;;;;;;9.83;7.03;;;4.70;54.40;;;;;;5092091;28;20450;-75
2021/01/12 03:41:56;;;;;;;8.30;6.53;;;4.70;54.50;;;;;;5092881;28;20449;-75
2021/01/12 03:44:22;;;;;;;9.23;6.53;;;4.70;54.60;;;;;;5092320;28;20446;-75
2021/01/12 03:46:49;;;;;;;8.17;6.00;;;4.80;54.60;;;;;;5093069;28;20463;-76
2021/01/12 03:49:15;;;;;;;10.93;6.07;;;4.80;54.70;;;;;;5092448;28;20980;-76
2021/01/12 03:51:43;;;;;;;7.90;6.40;;;4.80;54.70;;;;;;5092792;28;20490;-76
2021/01/12 03:54:09;;;;;;;6.93;4.80;;;4.80;54.80;;;;;;5092310;28;20443;-76
2021/01/12 03:56:36;;;;;;;8.87;6.10;;;4.80;54.90;;;;;;5091556;28;20819;-76
2021/01/12 03:59:02;;;;;;;10.20;6.77;;;4.70;55.30;;;;;;5092808;28;20455;-75
2021/01/12 04:01:29;;;;;;;8.30;7.07;;;4.70;55.70;;;;;;5092164;28;20455;-76
2021/01/12 04:03:55;;;;;;;8.57;5.87;;;4.70;55.80;;;;;;5092341;28;20459;-76
2021/01/12 04:06:22;;;;;;;7.03;5.37;;;4.80;55.80;;;;;;5092240;28;20456;-77
2021/01/12 04:08:54;;;;;;;9.10;5.50;;;4.80;55.90;;;;;;5092668;28;20989;-77
2021/01/12 04:11:20;;;;;;;8.03;5.73;;;4.70;55.80;;;;;;5092438;28;20479;-76
2021/01/12 04:13:47;;;;;;;10.73;7.60;;;4.70;56.10;;;;;;5092664;28;20459;-77
2021/01/12 04:16:14;;;;;;;7.53;5.70;;;4.70;56.20;;;;;;5092472;28;20459;-77
2021/01/12 04:18:40;;;;;;;7.60;6.17;;;4.80;56.30;;;;;;5092913;28;20449;-77
2021/01/12 04:21:07;;;;;;;7.03;5.70;;;4.80;56.30;;;;;;5092429;28;20449;-76
2021/01/12 04:23:33;;;;;;;9.07;6.33;;;4.80;56.30;;;;;;5090963;28;20505;-77
2021/01/12 04:26:01;;;;;;;7.80;6.40;;;4.80;56.30;;;;;;5091974;28;20452;-77
2021/01/12 04:28:27;;;;;;;8.13;7.17;;;4.80;56.30;;;;;;5092495;28;20444;-77
2021/01/12 04:30:54;;;;;;;7.47;5.67;;;4.80;56.40;;;;;;5091879;28;20482;-77
2021/01/12 04:33:20;;;;;;;10.57;6.20;;;4.80;56.50;;;;;;5092421;28;20463;-77
2021/01/12 04:35:47;;;;;;;6.67;6.07;;;4.80;56.60;;;;;;5091798;28;20948;-77
2021/01/12 04:38:13;;;;;;;7.17;5.80;;;4.80;56.70;;;;;;5090969;28;20502;-76
2021/01/12 04:40:40;;;;;;;6.60;5.07;;;4.80;56.60;;;;;;5092074;28;20453;-76
2021/01/12 04:43:07;;;;;;;8.97;6.73;;;4.70;56.80;;;;;;5092137;28;20459;-76
2021/01/12 04:45:34;;;;;;;8.97;6.07;;;4.70;57.00;;;;;;5092392;28;20485;-76
2021/01/12 04:48:00;;;;;;;7.03;5.97;;;4.70;57.30;;;;;;5091803;28;20473;-76
2021/01/12 04:50:27;;;;;;;5.33;4.37;;;4.70;56.90;;;;;;5090377;28;20445;-76
2021/01/12 04:52:53;;;;;;;9.20;6.80;;;4.70;57.00;;;;;;5095162;28;21043;-76
2021/01/12 04:55:21;;;;;;;9.47;7.40;;;4.70;57.30;;;;;;5095801;28;20489;-76
2021/01/12 04:57:48;;;;;;;8.10;5.43;;;4.70;57.40;;;;;;5095970;28;20857;-76
2021/01/12 05:00:18;;;;;;;8.40;5.00;;;4.70;57.30;;;;;;5096112;28;20453;-76
2021/01/12 05:02:56;;;;;;;6.83;5.00;;;4.70;57.20;;;;;;5095704;28;20445;-76
2021/01/12 05:05:26;;;;;;;8.37;5.50;;;4.70;57.10;;;;;;5095714;28;20920;-76
2021/01/12 05:07:53;;;;;;;5.27;4.77;;;4.60;57.50;;;;;;5095184;28;20475;-76
2021/01/12 05:10:19;;;;;;;10.30;5.40;;;4.50;57.70;;;;;;5095181;28;20972;-75
2021/01/12 05:12:47;;;;;;;8.17;5.70;;;4.60;57.90;;;;;;5095014;28;20491;-74
2021/01/12 05:15:18;;;;;;;9.53;6.23;;;4.70;57.70;;;;;;5093827;28;20451;-75
2021/01/12 05:17:49;;;;;;;7.10;5.50;;;4.70;57.60;;;;;;5094853;28;20448;-75
2021/01/12 05:20:22;;;;;;;6.93;5.07;;;4.60;57.60;;;;;;5095065;28;20443;-75
2021/01/12 05:22:55;;;;;;;8.60;6.13;;;4.60;57.80;;;;;;5095585;28;20453;-75
2021/01/12 05:25:33;;;;;;;8.50;6.37;;;4.70;58.00;;;;;;5095320;28;20456;-75
2021/01/12 05:28:01;;;;;;;6.37;5.70;;;4.70;58.20;;;;;;5095419;28;20457;-76
2021/01/12 05:30:29;;;;;;;9.27;6.50;;;4.70;58.10;;;;;;5095202;28;20460;-75
2021/01/12 05:32:58;;;;;;;7.43;6.27;;;4.80;58.00;;;;;;5095225;28;20834;-75
2021/01/12 05:35:29;;;;;;;7.43;6.40;;;4.80;58.10;;;;;;5095237;28;20448;-75
2021/01/12 05:38:01;;;;;;;8.63;6.43;;;4.70;58.20;;;;;;5093382;28;20452;-74
2021/01/12 05:40:31;;;;;;;7.97;6.30;;;4.80;58.30;;;;;;5094067;28;20538;-74
2021/01/12 05:43:05;;;;;;;7.80;5.80;;;4.80;58.30;;;;;;5093534;28;20448;-74
2021/01/12 05:45:35;;;;;;;7.27;5.67;;;4.80;58.30;;;;;;5094779;28;20541;-75
2021/01/12 05:48:02;;;;;;;8.63;6.30;;;4.90;58.50;;;;;;5095037;28;20452;-75
2021/01/12 05:50:30;;;;;;;11.00;6.57;;;4.90;58.30;;;;;;5094799;28;20453;-76
2021/01/12 05:53:03;;;;;;;7.70;5.70;;;4.90;58.40;;;;;;5094805;28;20517;-75
2021/01/12 05:55:35;;;;;;;8.80;6.10;;;5.00;58.50;;;;;;5094848;28;20454;-76
2021/01/12 05:58:10;;;;;;;10.03;6.90;;;5.00;58.50;;;;;;5095328;28;20515;-76
2021/01/12 06:00:41;;;;;;;6.03;5.33;;;5.00;58.70;;;;;;5094775;28;20534;-74
2021/01/12 06:03:09;;;;;;;8.17;5.77;;;5.00;58.70;;;;;;5093740;28;20485;-74
2021/01/12 06:05:37;;;;;;;9.43;5.43;;;5.10;58.90;;;;;;5093834;28;20443;-74
2021/01/12 06:08:05;;;;;;;7.60;6.13;;;5.10;58.90;;;;;;5092486;28;20471;-75
2021/01/12 06:10:35;;;;;;;6.40;5.00;;;5.10;58.90;;;;;;5093097;28;20443;-75
2021/01/12 06:13:03;;;;;;;4.90;4.13;;;5.10;59.10;;;;;;5093965;28;20486;-75
2021/01/12 06:15:34;;;;;;;7.03;5.67;;;5.10;59.20;;;;;;5093942;28;20455;-74
2021/01/12 06:18:05;;;;;;;5.50;4.70;;;5.10;59.60;;;;;;5094249;28;20447;-74
2021/01/12 06:20:44;;;;;;;7.10;4.93;;;5.10;59.70;;;;;;5093878;28;20461;-75
2021/01/12 06:23:16;;;;;;;8.27;5.30;;;5.10;59.90;;;;;;5094432;28;20589;-75
2021/01/12 06:25:44;;;;;;;6.80;6.13;;;5.20;59.90;;;;;;5094064;28;20455;-77
2021/01/12 06:28:11;;;;;;;5.83;5.23;;;5.20;59.70;;;;;;5093707;28;20456;-76
2021/01/12 06:30:38;;;;;;;8.17;6.30;;;5.20;59.40;;;;;;5093850;28;20981;-75
2021/01/12 06:33:06;;;;;;;6.27;5.40;;;5.20;59.50;;;;;;5093487;28;20489;-75
2021/01/12 06:35:38;;;;;;;8.10;6.57;;;5.10;59.60;;;;;;5092400;28;20513;-74
2021/01/12 06:38:07;;;;;;;8.57;5.60;;;5.10;59.80;;;;;;5093612;28;20535;-74
2021/01/12 06:40:35;;;;;;;7.13;6.17;;;5.10;60.00;;;;;;5093693;28;20555;-75
2021/01/12 06:43:02;;;;;;;7.17;6.43;;;5.10;59.80;;;;;;5093775;28;20533;-75
2021/01/12 06:45:29;;;;;;;6.93;4.97;;;5.10;59.80;;;;;;5093834;28;20454;-75
2021/01/12 06:47:56;;;;;;;7.80;5.57;;;5.20;59.80;;;;;;5093484;28;20449;-74
2021/01/12 06:50:25;;;;;;;6.90;5.23;;;5.10;59.60;;;;;;5092968;28;20511;-75
2021/01/12 06:52:52;;;;;;;6.43;5.70;;;5.20;59.70;;;;;;5093602;28;20491;-75
2021/01/12 06:55:20;;;;;;;6.50;4.90;;;5.20;59.70;;;;;;5093403;28;20535;-74
2021/01/12 06:57:48;;;;;;;7.30;5.30;;;5.10;59.80;;;;;;5093659;28;20479;-74
2021/01/12 07:00:16;;;;;;;7.83;4.53;;;5.10;59.90;;;;;;5092647;28;20456;-75
2021/01/12 07:02:43;;;;;;;6.30;4.80;;;5.20;59.80;;;;;;5091450;28;20515;-75
2021/01/12 07:05:12;;;;;;;8.30;6.47;;;5.20;59.90;;;;;;5092779;28;20443;-75
2021/01/12 07:07:41;;;;;;;7.83;5.30;;;5.20;59.80;;;;;;5092951;28;20527;-75
2021/01/12 07:10:09;;;;;;;6.83;4.80;;;5.20;59.50;;;;;;5093156;28;20452;-74
2021/01/12 07:12:36;;;;;;;8.23;6.17;;;5.20;59.80;;;;;;5092643;28;20572;-74
2021/01/12 07:15:07;;;;;;;8.40;5.60;;;5.20;59.90;;;;;;5093108;28;20471;-75
2021/01/12 07:17:39;;;;;;;6.27;4.93;;;5.20;59.90;;;;;;5092632;28;20937;-74
2021/01/12 07:20:11;;;;;;;5.50;4.97;;;5.20;60.10;;;;;;5092939;28;21006;-74
2021/01/12 07:22:40;;;;;;;6.70;5.00;;;5.20;60.30;;;;;;5092556;28;20452;-75
2021/01/12 07:25:09;;;;;;;6.00;3.67;;;5.30;60.40;;;;;;5093254;28;20453;-75
2021/01/12 07:27:35;;;;;;;7.07;5.47;;;5.30;60.20;;;;;;5091716;28;20459;-75
2021/01/12 07:30:07;;;;;;;6.57;5.33;;;5.30;60.40;;;;;;5092467;28;20438;-74
2021/01/12 07:32:36;;;;;;;6.80;4.17;;;5.40;60.40;;;;;;5090027;28;20549;-75
2021/01/12 07:35:11;;;;;;;5.37;4.77;;;5.30;60.70;;;;;;5092241;28;20463;-75
2021/01/12 07:37:40;;;;;;;5.40;4.20;;;5.30;60.90;;;;;;5092544;28;20461;-75
2021/01/12 07:40:09;;;;;;;5.50;4.87;;;5.40;61.20;;;;;;5092419;28;20809;-76
2021/01/12 07:42:45;;;;;;;5.23;4.70;;;5.40;61.30;;;;;;5092749;28;20496;-75
2021/01/12 07:45:13;;;;;;;6.53;4.50;;;5.40;61.30;;;;;;5083864;28;20496;-76
2021/01/12 07:47:40;;;;;;;6.10;4.53;;;5.40;61.60;;;;;;5072420;28;20945;-76
2021/01/12 07:50:08;;;;;;;5.87;4.60;;;5.50;61.80;;;;;;5072240;28;20459;-76
2021/01/12 07:52:35;;;;;;;5.53;4.37;;;5.50;62.10;;;;;;5079962;28;20489;-76
2021/01/12 07:55:02;;;;;;;7.60;4.57;;;5.40;62.10;;;;;;5073113;28;20520;-77
2021/01/12 07:57:29;;;;;;;5.97;5.23;;;5.40;62.40;;;;;;5092203;28;20450;-77
2021/01/12 07:59:56;;;;;;;7.73;5.63;;;5.40;62.30;;;;;;5092560;28;20450;-77
2021/01/12 08:02:25;;;;;;;5.50;4.83;;;5.40;62.60;;;;;;5091927;28;20542;-77
2021/01/12 08:04:52;;;;;;;6.40;5.33;;;5.50;62.50;;;;;;5091919;28;20547;-77
2021/01/12 08:07:23;;;;;;;4.90;4.40;;;5.50;62.40;;;;;;5091442;28;20459;-78
2021/01/12 08:09:56;;;;;;;5.37;4.83;;;5.50;62.30;;;;;;5092169;28;20470;-77
2021/01/12 08:12:24;;;;;;;8.30;5.27;;;5.50;62.40;;;;;;5092096;28;20834;-77
2021/01/12 08:14:53;;;;;;;6.03;4.90;;;5.60;62.30;;;;;;5092613;28;20454;-77
2021/01/12 08:17:22;;;;;;;4.57;4.13;;;5.60;62.30;;;;;;5092174;28;20498;-77
2021/01/12 08:19:56;;;;;;;5.13;3.90;;;5.70;62.40;;;;;;5089214;28;20838;-78
2021/01/12 08:22:24;;;;;;;7.10;4.87;;;5.70;62.50;;;;;;5086287;28;20450;-80
2021/01/12 08:24:52;;;;;;;7.90;4.83;;;5.70;62.40;;;;;;5083865;28;20457;-75
2021/01/12 08:27:23;;;;;;;6.10;5.10;;;5.80;62.50;;;;;;5086048;28;20462;-78
2021/01/12 08:29:49;;;;;;;5.57;3.70;;;5.80;62.70;;;;;;5089105;28;20458;-74
2021/01/12 08:32:22;;;;;;;4.60;3.60;;;5.80;62.70;;;;;;5093914;28;21169;-74
2021/01/12 08:34:58;;;;;;;4.67;4.00;;;5.80;63.00;;;;;;5085192;28;20457;-75
2021/01/12 08:37:39;;;;;;;3.90;3.43;;;5.80;63.40;;;;;;5093525;28;20453;-78
2021/01/12 08:40:09;;;;;;;3.60;2.90;;;5.80;63.70;;;;;;5081987;28;20787;-75
2021/01/12 08:42:38;;;;;;;3.77;2.80;;;5.80;63.70;;;;;;5090098;28;20454;-76
2021/01/12 08:45:15;;;;;;;4.53;3.80;;;5.80;64.30;;;;;;5082390;28;20444;-76
2021/01/12 08:47:42;;;;;;;4.70;3.97;;;5.70;64.80;;;;;;5088652;28;20446;-77
2021/01/12 08:50:09;;;;;;;5.70;3.33;;;5.80;64.90;;;;;;5090159;28;20500;-77
2021/01/12 08:52:41;;;;;;;4.90;3.10;;;5.80;64.80;;;;;;5091586;28;20491;-77
2021/01/12 08:55:16;;;;;;;5.03;3.77;;;5.90;64.80;;;;;;5095390;28;20544;-79
2021/01/12 08:57:55;;;;;;;3.70;3.40;;;5.90;64.80;;;;;;5084808;28;20504;-81
2021/01/12 09:00:27;;;;;;;4.10;2.97;;;6.00;64.60;;;;;;5087158;28;20454;-82
2021/01/12 09:02:54;;;;;;;4.50;4.10;;;6.00;64.50;;;;;;5082976;28;20469;-82
2021/01/12 09:05:21;;;;;;;5.10;3.30;;;6.10;64.40;;;;;;5095221;28;20461;-82
2021/01/12 09:07:58;;;;;;;3.60;3.30;;;6.20;64.40;;;;;;5095188;28;20485;-82
2021/01/12 09:10:26;;;;;;;4.20;2.83;;;6.20;64.30;;;;;;5094791;28;20457;-82
2021/01/12 09:12:55;;;;;;;3.40;3.10;;;6.10;64.30;;;;;;5094317;28;20479;-82
2021/01/12 09:15:27;;;;;;;3.70;3.07;;;6.10;64.80;;;;;;5093663;28;20466;-82
2021/01/12 09:18:05;;;;;;;4.33;3.40;;;6.10;64.70;;;;;;5095126;28;21030;-81
2021/01/12 09:20:32;;;;;;;2.20;1.97;;;6.20;65.00;;;;;;5087045;28;20486;-82
2021/01/12 09:23:09;;;;;;;3.10;2.80;;;6.20;65.10;;;;;;5076776;28;20444;-80
2021/01/12 09:25:38;;;;;;;3.20;2.70;;;6.20;65.10;;;;;;5083137;28;20472;-82
2021/01/12 09:28:16;;;;;;;4.13;2.47;;;6.20;65.00;;;;;;5095062;28;20445;-82
2021/01/12 09:30:44;;;;;;;3.23;2.03;;;6.30;65.20;;;;;;5094223;28;20950;-82
2021/01/12 09:33:14;;;;;;;3.10;2.80;;;6.20;65.60;;;;;;5093887;28;20489;-80
2021/01/12 09:35:40;;;;;;;2.80;2.30;;;6.30;65.80;;;;;;5094571;28;20476;-80
2021/01/12 09:38:07;;;;;;;2.60;1.93;;;6.30;65.40;;;;;;5093931;28;20457;-79
2021/01/12 09:40:35;;;;;;;2.23;2.03;;;6.40;65.60;;;;;;5092926;28;20827;-79
2021/01/12 09:43:02;;;;;;;1.60;1.47;;;6.40;65.50;;;;;;5094296;28;20485;-80
2021/01/12 09:45:30;;;;;;;2.60;1.47;;;6.40;65.40;;;;;;5094870;28;20504;-80
2021/01/12 09:47:57;;;;;;;1.70;1.60;;;6.40;65.50;;;;;;5093901;28;20465;-81
2021/01/12 09:50:23;;;;;;;1.50;1.40;;;6.30;65.90;;;;;;5094312;28;20456;-80
2021/01/12 09:52:52;;;;;;;1.53;1.40;;;6.30;66.50;;;;;;5094207;28;20478;-81
2021/01/12 09:55:20;;;;;;;1.20;1.10;;;6.20;66.90;;;;;;5094587;28;20451;-81
2021/01/12 09:57:52;;;;;;;1.47;1.37;;;6.00;67.80;;;;;;5094126;28;20496;-83
2021/01/12 10:00:20;;;;;;;2.00;1.33;;;6.00;68.30;;;;;;5093069;28;20489;-81
2021/01/12 10:02:47;;;;;;;2.47;1.47;;;6.10;68.90;;;;;;5089924;28;20546;-81
2021/01/12 10:05:14;;;;;;;1.57;1.30;;;6.10;69.30;;;;;;5093693;28;20534;-81
2021/01/12 10:07:41;;;;;;;1.33;1.10;;;6.00;69.50;;;;;;5092232;28;20473;-81
2021/01/12 10:10:08;;;;;;;1.40;1.30;;;6.00;69.80;;;;;;5093705;28;20492;-81
2021/01/12 10:12:38;;;;;;;1.63;1.53;;;6.00;70.20;;;;;;5093389;28;20478;-82
2021/01/12 10:15:08;;;;;;;1.67;1.57;;;6.10;70.40;;;;;;5093792;28;20475;-81
2021/01/12 10:17:35;;;;;;;1.60;1.50;;;6.00;70.50;;;;;;5093594;28;20824;-82
2021/01/12 10:20:03;;;;;;;2.80;1.53;;;6.00;71.00;;;;;;5093543;28;20461;-81
2021/01/12 10:22:29;;;;;;;1.50;1.40;;;6.00;71.30;;;;;;5091699;28;20453;-81
2021/01/12 10:24:58;;;;;;;1.50;1.40;;;6.00;71.40;;;;;;5093965;28;20782;-81
2021/01/12 10:27:26;;;;;;;2.40;1.23;;;6.10;71.60;;;;;;5094132;28;20544;-81
2021/01/12 10:29:52;;;;;;;1.50;1.40;;;6.00;72.00;;;;;;5094055;28;20474;-79
2021/01/12 10:32:20;;;;;;;1.40;1.30;;;6.00;72.30;;;;;;5094233;28;20501;-80
2021/01/12 10:34:46;;;;;;;1.87;1.77;;;6.00;72.70;;;;;;5092052;28;20462;-79
2021/01/12 10:37:15;;;;;;;5.77;1.40;;;6.00;72.90;;;;;;5093721;28;20455;-80
2021/01/12 10:39:42;;;;;;;1.20;1.10;;;6.00;73.30;;;;;;5093297;28;20446;-80
2021/01/12 10:42:10;;;;;;;1.33;1.23;;;6.00;73.40;;;;;;5093411;28;20443;-81
2021/01/12 10:44:37;;;;;;;1.60;1.50;;;6.00;73.80;;;;;;5092281;28;20454;-80
2021/01/12 10:47:04;;;;;;;1.93;1.10;;;6.10;73.90;;;;;;5092296;28;20810;-80
2021/01/12 10:49:30;;;;;;;1.47;1.20;;;6.10;73.40;;;;;;5092318;28;20812;-80
2021/01/12 10:51:59;;;;;;;1.33;1.20;;;6.00;73.60;;;;;;5093240;28;20462;-80
2021/01/12 10:54:26;;;;;;;2.27;1.47;;;6.00;73.90;;;;;;5093172;28;20452;-80
2021/01/12 10:56:53;;;;;;;4.47;1.43;;;6.00;73.90;;;;;;5093346;28;20972;-81
2021/01/12 10:59:20;;;;;;;4.10;1.30;;;6.00;74.30;;;;;;5093984;28;20573;-81
2021/01/12 11:01:53;;;;;;;5.33;1.30;;;6.00;74.80;;;;;;5091579;28;20512;-80
2021/01/12 11:04:20;;;;;;;1.70;1.13;;;6.00;74.70;;;;;;5092623;28;20941;-80
2021/01/12 11:06:47;;;;;;;1.67;1.20;;;6.00;75.00;;;;;;5092591;28;20452;-80
2021/01/12 11:09:15;;;;;;;1.70;1.00;;;6.00;75.10;;;;;;5092611;28;20573;-80
2021/01/12 11:11:42;;;;;;;0.60;0.60;;;5.90;75.00;;;;;;5092743;28;20482;-81
2021/01/12 11:14:09;;;;;;;1.20;0.90;;;5.90;75.40;;;;;;5092488;28;20802;-80
2021/01/12 11:16:37;;;;;;;2.47;1.20;;;5.80;75.80;;;;;;5092790;28;20811;-78
2021/01/12 11:19:04;;;;;;;3.80;0.97;;;5.80;76.40;;;;;;5093199;28;20484;-79
2021/01/12 11:21:31;;;;;;;1.10;1.00;;;5.80;76.80;;;;;;5092881;28;20470;-80
2021/01/12 11:23:59;;;;;;;1.63;0.60;;;5.80;76.80;;;;;;5093354;28;20950;-80
2021/01/12 11:26:30;;;;;;;1.67;1.03;;;5.80;77.00;;;;;;5087621;28;20447;-82
2021/01/12 11:29:00;;;;;;;1.20;1.13;;;5.80;77.00;;;;;;5079627;28;20848;-79
2021/01/12 11:31:27;;;;;;;1.10;0.80;;;5.90;77.00;;;;;;5092495;28;20450;-78
2021/01/12 11:33:55;;;;;;;0.90;0.90;;;5.90;77.30;;;;;;5092432;28;20830;-80
2021/01/12 11:36:22;;;;;;;0.97;0.70;;;5.90;76.90;;;;;;5085813;28;20466;-80
2021/01/12 11:38:48;;;;;;;1.10;1.00;;;5.90;76.70;;;;;;5083193;28;20443;-79
2021/01/12 11:41:15;;;;;;;1.73;0.70;;;5.90;77.00;;;;;;5085451;28;20444;-79
2021/01/12 11:43:42;;;;;;;1.90;0.93;;;5.90;77.00;;;;;;5088476;28;20523;-81
2021/01/12 11:46:09;;;;;;;1.10;1.00;;;5.90;76.80;;;;;;5092559;28;20453;-81
2021/01/12 11:48:37;;;;;;;1.47;1.10;;;6.00;76.90;;;;;;5092679;28;20476;-79
2021/01/12 11:51:04;;;;;;;0.90;0.90;;;5.90;77.20;;;;;;5091846;28;20507;-79
2021/01/12 11:53:31;;;;;;;1.00;0.90;;;5.90;76.90;;;;;;5071631;28;20487;-79
2021/01/12 11:55:57;;;;;;;2.47;1.23;;;6.00;77.30;;;;;;5086988;28;20459;-79
2021/01/12 11:58:24;;;;;;;1.10;0.83;;;6.00;77.20;;;;;;5092285;28;20443;-79
2021/01/12 12:00:50;;;;;;;7.43;1.23;;;6.00;76.90;;;;;;5092193;28;20781;-79
2021/01/12 12:03:19;;;;;;;1.70;0.97;;;6.00;77.00;;;;;;5092206;28;20454;-79
2021/01/12 12:05:47;;;;;;;1.07;0.97;;;6.00;77.40;;;;;;5092149;28;20499;-79
2021/01/12 12:08:13;;;;;;;1.27;1.17;;;6.00;77.60;;;;;;5092126;28;20471;-79
2021/01/12 12:10:40;;;;;;;2.50;1.13;;;6.00;77.30;;;;;;5091643;28;20439;-78
2021/01/12 12:13:07;;;;;;;1.90;0.90;;;5.90;77.30;;;;;;5091623;28;20989;-79
2021/01/12 12:15:33;;;;;;;0.70;0.70;;;5.90;77.50;;;;;;5091984;28;20452;-78
2021/01/12 12:18:00;;;;;;;1.10;0.73;;;5.90;77.60;;;;;;5092355;28;20460;-78
2021/01/12 12:20:28;;;;;;;1.00;1.00;;;5.90;78.00;;;;;;5090373;28;20450;-78
2021/01/12 12:22:55;;;;;;;0.63;0.63;;;5.80;77.60;;;;;;5091907;28;20515;-78
2021/01/12 12:25:21;;;;;;;1.07;0.97;;;5.80;78.00;;;;;;5091578;28;20931;-78
2021/01/12 12:27:48;;;;;;;1.43;1.33;;;5.90;78.50;;;;;;5091780;28;20453;-77
2021/01/12 12:30:16;;;;;;;0.80;0.80;;;5.90;78.30;;;;;;5092186;28;20870;-77
2021/01/12 12:32:42;;;;;;;0.67;0.67;;;5.90;77.70;;;;;;5091629;28;20497;-78
2021/01/12 12:35:10;;;;;;;5.27;0.77;;;5.90;78.20;;;;;;5092128;28;20448;-78
2021/01/12 12:37:37;;;;;;;0.70;0.70;;;5.90;78.30;;;;;;5091719;28;20454;-78
2021/01/12 12:40:06;;;;;;;1.53;0.97;;;5.80;78.10;;;;;;5091944;28;20458;-77
2021/01/12 12:42:33;;;;;;;0.70;0.70;;;5.80;78.70;;;;;;5092047;28;20454;-78
2021/01/12 12:44:59;;;;;;;5.03;0.80;;;5.80;78.60;;;;;;5091755;28;20462;-77
2021/01/12 12:47:26;;;;;;;1.40;0.97;;;5.70;78.60;;;;;;5090548;28;20455;-78
2021/01/12 12:49:52;;;;;;;1.17;0.87;;;5.70;79.10;;;;;;5092095;28;20491;-78
2021/01/12 12:52:19;;;;;;;3.33;0.70;;;5.70;79.30;;;;;;5089273;28;20485;-78
2021/01/12 12:54:47;;;;;;;4.17;0.73;;;5.70;79.90;;;;;;5091816;28;20931;-78
2021/01/12 12:57:14;;;;;;;0.90;0.70;;;5.70;79.50;;;;;;5091928;28;20480;-79